createdAt,value
2022-11-07T00:00:14.207Z,100541.72
2022-11-07T00:00:49.943Z,100542.94
2022-11-07T00:01:23.595Z,100536.00
2022-11-07T00:01:55.327Z,100549.50
2022-11-07T00:02:27.077Z,100546.84
2022-11-07T00:02:58.728Z,100550.72
2022-11-07T00:03:30.258Z,100543.75
2022-11-07T00:04:01.980Z,100542.34
2022-11-07T00:04:33.994Z,100549.91
2022-11-07T00:05:05.994Z,100547.44
2022-11-07T00:05:41.013Z,100554.38
2022-11-07T00:06:24.806Z,100543.75
2022-11-07T00:06:56.507Z,100556.47
2022-11-07T00:07:28.619Z,100543.59
2022-11-07T00:08:00.402Z,100566.69
2022-11-07T00:08:32.104Z,100543.97
2022-11-07T00:09:04.096Z,100547.44
2022-11-07T00:09:41.726Z,100549.50
2022-11-07T00:10:15.498Z,100558.31
2022-11-07T00:12:02.622Z,100554.38
2022-11-07T00:12:36.537Z,100550.72
2022-11-07T00:13:08.189Z,100546.22
2022-11-07T00:13:39.740Z,100541.72
2022-11-07T00:14:13.287Z,100545.59
2022-11-07T00:14:45.048Z,100549.69
2022-11-07T00:15:16.740Z,100548.06
2022-11-07T00:15:48.378Z,100545.41
2022-11-07T00:16:19.985Z,100540.91
2022-11-07T00:16:52.867Z,100544.16
2022-11-07T00:17:24.415Z,100545.78
2022-11-07T00:17:57.734Z,100552.72
2022-11-07T00:18:29.261Z,100551.91
2022-11-07T00:19:01.760Z,100557.22
2022-11-07T00:19:33.299Z,100551.25
2022-11-07T00:20:08.456Z,100561.09
2022-11-07T00:20:40.352Z,100557.97
2022-11-07T00:21:12.174Z,100554.72
2022-11-07T00:21:43.857Z,100551.69
2022-11-07T00:22:15.397Z,100547.19
2022-11-07T00:22:46.865Z,100553.91
2022-11-07T00:23:18.438Z,100555.75
2022-11-07T00:23:50.004Z,100562.50
2022-11-07T00:24:21.640Z,100557.38
2022-11-07T00:24:53.203Z,100554.34
2022-11-07T00:25:24.756Z,100556.78
2022-11-07T00:26:03.322Z,100551.47
2022-11-07T00:26:35.627Z,100548.16
2022-11-07T00:27:07.358Z,100548.16
2022-11-07T00:27:39.011Z,100552.88
2022-11-07T00:28:10.772Z,100553.25
2022-11-07T00:28:43.317Z,100559.59
2022-11-07T00:29:17.076Z,100548.59
2022-11-07T00:29:48.658Z,100543.28
2022-11-07T00:30:20.381Z,100539.19
2022-11-07T00:30:53.544Z,100548.59
2022-11-07T00:31:25.676Z,100545.72
2022-11-07T00:31:59.162Z,100554.28
2022-11-07T00:33:00.320Z,100554.28
2022-11-07T00:33:32.168Z,100545.28
2022-11-07T00:34:03.777Z,100547.34
2022-11-07T00:34:35.308Z,100544.47
2022-11-07T00:35:07.116Z,100545.28
2022-11-07T00:35:42.543Z,100554.28
2022-11-07T00:36:19.514Z,100554.28
2022-11-07T00:36:51.077Z,100552.88
2022-11-07T00:37:22.662Z,100547.34
2022-11-07T00:37:55.177Z,100551.03
2022-11-07T00:38:27.165Z,100556.34
2022-11-07T00:38:58.780Z,100551.25
2022-11-07T00:39:30.595Z,100555.16
2022-11-07T00:40:02.576Z,100549.03
2022-11-07T00:40:34.095Z,100558.41
2022-11-07T00:41:07.734Z,100555.53
2022-11-07T00:41:39.861Z,100558.19
2022-11-07T00:42:11.449Z,100554.50
2022-11-07T00:42:43.119Z,100555.16
2022-11-07T00:43:15.120Z,100555.59
2022-11-07T00:43:47.263Z,100554.78
2022-11-07T00:44:18.846Z,100552.34
2022-11-07T00:44:50.404Z,100555.59
2022-11-07T00:45:21.955Z,100555.22
2022-11-07T00:45:54.145Z,100560.56
2022-11-07T00:46:27.587Z,100567.69
2022-11-07T00:46:59.110Z,100554.38
2022-11-07T00:47:30.616Z,100569.34
2022-11-07T00:48:02.126Z,100562.56
2022-11-07T00:48:34.386Z,100560.94
2022-11-07T00:49:05.906Z,100563.81
2022-11-07T00:49:37.468Z,100553.16
2022-11-07T00:50:09.341Z,100548.66
2022-11-07T00:50:40.932Z,100555.00
2022-11-07T00:51:23.478Z,100549.47
2022-11-07T00:51:56.855Z,100548.00
2022-11-07T00:52:28.402Z,100560.06
2022-11-07T00:52:59.908Z,100561.69
2022-11-07T00:53:31.555Z,100574.38
2022-11-07T00:54:04.174Z,100573.94
2022-11-07T00:54:35.707Z,100573.94
2022-11-07T00:55:07.722Z,100561.69
2022-11-07T00:55:39.315Z,100570.09
2022-11-07T00:56:14.428Z,100565.38
2022-11-07T00:56:45.944Z,100561.75
2022-11-07T00:57:17.491Z,100582.22
2022-11-07T00:57:49.300Z,100569.94
2022-11-07T00:58:24.010Z,100578.16
2022-11-07T00:59:21.086Z,100570.34
2022-11-07T00:59:52.642Z,100582.84
2022-11-07T01:00:24.482Z,100584.69
2022-11-07T01:00:56.381Z,100573.63
2022-11-07T01:01:30.325Z,100587.53
2022-11-07T01:02:02.125Z,100585.91
2022-11-07T01:02:34.600Z,100589.59
2022-11-07T01:03:24.794Z,100583.84
2022-11-07T01:04:18.393Z,100586.13
2022-11-07T01:05:10.167Z,100587.53
2022-11-07T01:05:41.727Z,100586.94
2022-11-07T01:06:13.506Z,100585.09
2022-11-07T01:06:46.372Z,100583.88
2022-11-07T01:07:18.040Z,100581.44
2022-11-07T01:07:49.636Z,100588.38
2022-11-07T01:08:21.225Z,100591.63
2022-11-07T01:08:54.564Z,100584.09
2022-11-07T01:09:26.669Z,100594.13
2022-11-07T01:09:58.289Z,100589.03
2022-11-07T01:10:30.319Z,100580.25
2022-11-07T01:11:10.072Z,100585.56
2022-11-07T01:11:46.013Z,100579.81
2022-11-07T01:12:17.965Z,100578.19
2022-11-07T01:12:49.947Z,100583.06
2022-11-07T01:13:22.586Z,100584.31
2022-11-07T01:13:58.460Z,100580.25
2022-11-07T01:14:30.835Z,100586.38
2022-11-07T01:15:04.105Z,100587.19
2022-11-07T01:17:43.448Z,100579.81
2022-11-07T01:18:15.109Z,100574.03
2022-11-07T01:18:46.685Z,100589.19
2022-11-07T01:19:19.434Z,100586.75
2022-11-07T01:19:51.076Z,100589.59
2022-11-07T01:20:26.424Z,100591.00
2022-11-07T01:20:59.496Z,100583.84
2022-11-07T01:21:31.280Z,100580.16
2022-11-07T01:22:02.839Z,100578.31
2022-11-07T01:22:34.442Z,100585.03
2022-11-07T01:23:06.214Z,100582.59
2022-11-07T01:23:37.716Z,100586.06
2022-11-07T01:24:10.979Z,100578.66
2022-11-07T01:24:42.526Z,100588.28
2022-11-07T01:25:16.441Z,100579.72
2022-11-07T01:25:48.037Z,100578.91
2022-11-07T01:26:19.821Z,100590.34
2022-11-07T01:26:51.934Z,100581.34
2022-11-07T01:27:23.606Z,100586.22
2022-11-07T01:27:55.321Z,100593.16
2022-11-07T01:28:26.959Z,100587.84
2022-11-07T01:28:59.634Z,100584.59
2022-11-07T01:29:32.868Z,100586.22
2022-11-07T01:30:05.162Z,100582.53
2022-11-07T01:30:42.443Z,100582.97
2022-11-07T01:31:18.820Z,100590.66
2022-11-07T01:31:50.899Z,100584.97
2022-11-07T01:32:22.843Z,100584.16
2022-11-07T01:32:54.511Z,100591.09
2022-11-07T01:33:26.296Z,100597.22
2022-11-07T01:34:00.702Z,100592.50
2022-11-07T01:34:32.255Z,100588.22
2022-11-07T01:35:06.352Z,100586.97
2022-11-07T01:35:38.085Z,100591.03
2022-11-07T01:36:14.244Z,100591.47
2022-11-07T01:36:47.348Z,100596.41
2022-11-07T01:37:18.981Z,100596.41
2022-11-07T01:37:50.763Z,100593.75
2022-11-07T01:38:22.504Z,100604.63
2022-11-07T01:38:54.188Z,100589.31
2022-11-07T01:39:28.277Z,100595.22
2022-11-07T01:39:59.948Z,100591.81
2022-11-07T01:40:33.910Z,100597.16
2022-11-07T01:41:21.956Z,100593.66
2022-11-07T01:41:53.454Z,100591.81
2022-11-07T01:42:25.904Z,100599.81
2022-11-07T01:42:57.404Z,100612.91
2022-11-07T01:43:48.262Z,100603.50
2022-11-07T01:44:19.883Z,100599.81
2022-11-07T01:44:57.423Z,100600.63
2022-11-07T01:45:31.227Z,100606.53
2022-11-07T01:46:03.005Z,100602.63
2022-11-07T01:46:42.662Z,100602.63
2022-11-07T01:47:14.404Z,100604.69
2022-11-07T01:47:46.138Z,100597.72
2022-11-07T01:48:17.698Z,100600.41
2022-11-07T01:49:01.601Z,100611.63
2022-11-07T01:49:38.107Z,100599.38
2022-11-07T01:50:10.501Z,100600.78
2022-11-07T01:50:42.092Z,100595.22
2022-11-07T01:51:14.365Z,100606.09
2022-11-07T01:52:04.339Z,100598.09
2022-11-07T01:52:42.104Z,100602.19
2022-11-07T01:53:14.040Z,100603.81
2022-11-07T01:53:46.094Z,100598.47
2022-11-07T01:54:22.299Z,100598.94
2022-11-07T01:55:08.985Z,100603.81
2022-11-07T01:55:40.511Z,100603.81
2022-11-07T01:56:15.209Z,100591.09
2022-11-07T01:56:47.825Z,100602.56
2022-11-07T01:57:24.453Z,100605.16
2022-11-07T01:58:01.111Z,100610.31
2022-11-07T01:58:32.658Z,100606.63
2022-11-07T01:59:04.883Z,100619.34
2022-11-07T01:59:37.450Z,100611.94
2022-11-07T02:00:11.466Z,100614.81
2022-11-07T02:00:42.979Z,100617.28
2022-11-07T02:01:15.372Z,100616.81
2022-11-07T02:01:47.113Z,100618.91
2022-11-07T02:02:18.863Z,100611.50
2022-11-07T02:02:54.292Z,100606.19
2022-11-07T02:03:26.315Z,100612.09
2022-11-07T02:03:59.335Z,100614.75
2022-11-07T02:04:31.470Z,100603.69
2022-11-07T02:05:05.383Z,100608.41
2022-11-07T02:06:01.457Z,100611.25
2022-11-07T02:06:51.680Z,100604.88
2022-11-07T02:07:24.224Z,100613.09
2022-11-07T02:07:56.512Z,100608.59
2022-11-07T02:08:30.296Z,100609.63
2022-11-07T02:09:56.018Z,100614.13
2022-11-07T02:10:28.135Z,100603.25
2022-11-07T02:11:04.822Z,100611.47
2022-11-07T02:11:37.128Z,100607.78
2022-11-07T02:12:11.912Z,100607.56
2022-11-07T02:12:43.941Z,100609.81
2022-11-07T02:13:21.851Z,100617.56
2022-11-07T02:13:53.422Z,100613.06
2022-11-07T02:14:24.963Z,100612.03
2022-11-07T02:14:56.739Z,100623.25
2022-11-07T02:15:28.470Z,100613.44
2022-11-07T02:16:02.468Z,100617.13
2022-11-07T02:16:36.896Z,100617.13
2022-11-07T02:17:09.578Z,100611.59
2022-11-07T02:17:41.515Z,100621.56
2022-11-07T02:18:13.231Z,100622.81
2022-11-07T02:18:45.462Z,100620.75
2022-11-07T02:19:35.317Z,100613.81
2022-11-07T02:20:15.979Z,100626.06
2022-11-07T02:20:47.619Z,100608.91
2022-11-07T02:21:27.596Z,100608.91
2022-11-07T02:22:29.058Z,100609.50
2022-11-07T02:23:05.936Z,100610.53
2022-11-07T02:23:45.517Z,100613.81
2022-11-07T02:24:29.940Z,100615.22
2022-11-07T02:25:10.694Z,100608.41
2022-11-07T02:25:43.437Z,100616.97
2022-11-07T02:26:15.047Z,100610.03
2022-11-07T02:26:46.630Z,100613.50
2022-11-07T02:27:19.988Z,100606.34
2022-11-07T02:27:54.826Z,100608.41
2022-11-07T02:28:26.989Z,100606.94
2022-11-07T02:29:03.797Z,100607.16
2022-11-07T02:29:36.273Z,100619.44
2022-11-07T02:30:14.264Z,100609.41
2022-11-07T02:30:45.797Z,100616.56
2022-11-07T02:31:17.303Z,100611.66
2022-11-07T02:31:48.910Z,100614.31
2022-11-07T02:32:20.721Z,100605.53
2022-11-07T02:33:00.317Z,100612.88
2022-11-07T02:33:31.952Z,100620.41
2022-11-07T02:34:03.768Z,100608.94
2022-11-07T02:34:38.020Z,100601.34
2022-11-07T02:35:33.288Z,100606.28
2022-11-07T02:36:07.082Z,100616.50
2022-11-07T02:38:58.921Z,100616.94
2022-11-07T02:39:30.789Z,100608.94
2022-11-07T02:40:05.890Z,100609.53
2022-11-07T02:40:38.063Z,100608.94
2022-11-07T02:41:20.216Z,100606.72
2022-11-07T02:41:52.631Z,100613.50
2022-11-07T02:43:17.696Z,100602.13
2022-11-07T02:43:52.970Z,100606.19
2022-11-07T02:44:24.573Z,100612.09
2022-11-07T02:44:56.211Z,100617.88
2022-11-07T02:45:33.929Z,100612.53
2022-11-07T02:46:11.848Z,100623.78
2022-11-07T02:46:43.700Z,100624.00
2022-11-07T02:47:15.590Z,100625.25
2022-11-07T02:47:47.257Z,100617.44
2022-11-07T02:48:18.943Z,100619.13
2022-11-07T02:48:54.668Z,100630.97
2022-11-07T02:49:26.469Z,100622.59
2022-11-07T02:49:58.005Z,100618.69
2022-11-07T02:50:31.999Z,100617.72
2022-11-07T02:51:03.925Z,100608.09
2022-11-07T02:51:35.643Z,100617.50
2022-11-07T02:52:07.234Z,100621.19
2022-11-07T02:52:38.992Z,100610.19
2022-11-07T02:53:10.670Z,100618.38
2022-11-07T02:53:42.256Z,100623.47
2022-11-07T02:54:13.852Z,100613.88
2022-11-07T02:54:45.361Z,100610.53
2022-11-07T02:55:16.895Z,100611.72
2022-11-07T02:55:48.382Z,100621.63
2022-11-07T02:56:21.206Z,100606.31
2022-11-07T02:56:52.693Z,100617.16
2022-11-07T02:57:24.296Z,100613.06
2022-11-07T02:57:56.777Z,100622.06
2022-11-07T02:58:28.372Z,100619.41
2022-11-07T02:58:59.935Z,100611.44
2022-11-07T02:59:31.518Z,100618.19
2022-11-07T03:00:05.037Z,100611.25
2022-11-07T03:00:36.699Z,100615.75
2022-11-07T03:01:08.511Z,100613.13
2022-11-07T03:01:40.202Z,100613.09
2022-11-07T03:02:14.261Z,100616.38
2022-11-07T03:03:11.026Z,100612.47
2022-11-07T03:03:45.030Z,100636.41
2022-11-07T03:04:16.625Z,100626.19
2022-11-07T03:04:49.261Z,100626.63
2022-11-07T03:05:21.370Z,100631.16
2022-11-07T03:05:53.082Z,100629.09
2022-11-07T03:06:26.033Z,100624.38
2022-11-07T03:06:57.888Z,100633.38
2022-11-07T03:07:29.445Z,100622.75
2022-11-07T03:08:00.986Z,100625.84
2022-11-07T03:08:32.474Z,100629.09
2022-11-07T03:09:04.261Z,100621.13
2022-11-07T03:09:40.101Z,100625.19
2022-11-07T03:10:12.119Z,100632.34
2022-11-07T03:10:43.738Z,100630.94
2022-11-07T03:11:19.785Z,100635.47
2022-11-07T03:11:53.136Z,100626.44
2022-11-07T03:12:24.653Z,100623.78
2022-11-07T03:12:56.180Z,100631.16
2022-11-07T03:13:36.998Z,100639.38
2022-11-07T03:14:08.534Z,100624.22
2022-11-07T03:14:40.194Z,100623.41
2022-11-07T03:15:12.494Z,100630.13
2022-11-07T03:15:51.099Z,100637.69
2022-11-07T03:16:35.501Z,100630.28
2022-11-07T03:17:07.324Z,100643.00
2022-11-07T03:17:39.260Z,100641.38
2022-11-07T03:18:10.983Z,100632.34
2022-11-07T03:18:42.582Z,100646.25
2022-11-07T03:19:14.243Z,100634.78
2022-11-07T03:19:46.428Z,100637.28
2022-11-07T03:20:19.136Z,100634.78
2022-11-07T03:20:50.809Z,100639.94
2022-11-07T03:21:22.428Z,100634.78
2022-11-07T03:21:53.968Z,100636.06
2022-11-07T03:22:25.435Z,100631.94
2022-11-07T03:22:57.075Z,100635.00
2022-11-07T03:23:29.268Z,100635.63
2022-11-07T03:24:00.867Z,100639.31
2022-11-07T03:24:32.627Z,100634.19
2022-11-07T03:25:05.201Z,100632.34
2022-11-07T03:25:36.866Z,100633.97
2022-11-07T03:26:12.120Z,100636.47
2022-11-07T03:26:43.910Z,100632.94
2022-11-07T03:27:15.963Z,100640.34
2022-11-07T03:27:48.934Z,100640.78
2022-11-07T03:28:20.491Z,100631.53
2022-11-07T03:28:52.134Z,100645.88
2022-11-07T03:29:23.700Z,100637.69
2022-11-07T03:29:55.406Z,100636.06
2022-11-07T03:30:27.013Z,100635.47
2022-11-07T03:31:03.224Z,100634.41
2022-11-07T03:31:35.037Z,100626.88
2022-11-07T03:32:06.903Z,100629.31
2022-11-07T03:32:38.454Z,100634.63
2022-11-07T03:33:09.998Z,100626.06
2022-11-07T03:33:41.522Z,100630.72
2022-11-07T03:34:13.125Z,100637.91
2022-11-07T03:34:44.794Z,100634.88
2022-11-07T03:35:16.466Z,100640.19
2022-11-07T03:35:48.636Z,100635.25
2022-11-07T03:36:20.203Z,100641.22
2022-11-07T03:36:51.844Z,100635.31
2022-11-07T03:37:23.324Z,100635.91
2022-11-07T03:37:54.834Z,100635.31
2022-11-07T03:38:26.420Z,100638.56
2022-11-07T03:38:57.935Z,100641.22
2022-11-07T03:39:30.060Z,100639.59
2022-11-07T03:40:01.910Z,100639.00
2022-11-07T03:40:33.573Z,100639.16
2022-11-07T03:41:05.276Z,100636.94
2022-11-07T03:41:36.973Z,100636.94
2022-11-07T03:42:08.606Z,100635.91
2022-11-07T03:42:40.875Z,100636.34
2022-11-07T03:43:12.831Z,100636.50
2022-11-07T03:43:48.034Z,100639.00
2022-11-07T03:44:19.740Z,100639.00
2022-11-07T03:44:51.451Z,100647.56
2022-11-07T03:45:23.032Z,100640.63
2022-11-07T03:45:54.621Z,100636.34
2022-11-07T03:46:26.192Z,100636.78
2022-11-07T03:46:57.734Z,100633.06
2022-11-07T03:47:29.310Z,100638.63
2022-11-07T03:48:01.107Z,100637.00
2022-11-07T03:48:33.381Z,100635.59
2022-11-07T03:49:05.019Z,100639.66
2022-11-07T03:49:36.789Z,100632.91
2022-11-07T03:50:10.129Z,100637.81
2022-11-07T03:50:41.880Z,100640.47
2022-11-07T03:51:14.623Z,100636.19
2022-11-07T03:51:46.320Z,100634.53
2022-11-07T03:52:17.982Z,100638.25
2022-11-07T03:52:49.705Z,100637.66
2022-11-07T03:53:25.565Z,100632.53
2022-11-07T03:53:57.738Z,100631.94
2022-11-07T03:54:29.385Z,100634.41
2022-11-07T03:55:01.610Z,100633.00
2022-11-07T03:55:33.175Z,100632.41
2022-11-07T03:56:09.199Z,100633.44
2022-11-07T03:56:40.792Z,100626.94
2022-11-07T03:57:12.319Z,100633.88
2022-11-07T03:57:44.624Z,100629.00
2022-11-07T03:58:16.182Z,100631.06
2022-11-07T03:58:47.883Z,100632.50
2022-11-07T03:59:19.578Z,100635.41
2022-11-07T03:59:51.170Z,100628.22
2022-11-07T04:00:23.724Z,100630.28
2022-11-07T04:00:55.420Z,100633.97
2022-11-07T04:01:27.287Z,100633.97
2022-11-07T04:01:59.197Z,100633.16
2022-11-07T04:02:31.035Z,100637.25
2022-11-07T04:03:04.438Z,100640.50
2022-11-07T04:03:36.251Z,100638.00
2022-11-07T04:04:08.935Z,100638.22
2022-11-07T04:04:43.926Z,100637.63
2022-11-07T04:05:15.481Z,100640.28
2022-11-07T04:05:47.204Z,100635.56
2022-11-07T04:06:19.612Z,100641.69
2022-11-07T04:07:16.584Z,100642.13
2022-11-07T04:07:48.125Z,100638.81
2022-11-07T04:08:20.019Z,100638.38
2022-11-07T04:08:51.538Z,100634.16
2022-11-07T04:09:23.155Z,100635.78
2022-11-07T04:09:54.727Z,100642.28
2022-11-07T04:10:26.296Z,100636.38
2022-11-07T04:10:57.802Z,100648.25
2022-11-07T04:11:48.478Z,100647.44
2022-11-07T04:12:38.391Z,100645.81
2022-11-07T04:13:29.384Z,100641.91
2022-11-07T04:14:19.399Z,100647.44
2022-11-07T04:15:09.830Z,100643.75
2022-11-07T04:16:00.181Z,100648.63
2022-11-07T04:16:50.095Z,100641.25
2022-11-07T04:17:21.789Z,100649.84
2022-11-07T04:17:53.359Z,100643.69
2022-11-07T04:18:24.930Z,100650.44
2022-11-07T04:18:57.537Z,100642.44
2022-11-07T04:19:29.139Z,100647.78
2022-11-07T04:20:00.667Z,100655.91
2022-11-07T04:20:32.257Z,100650.38
2022-11-07T04:21:04.001Z,100646.69
2022-11-07T04:21:35.749Z,100654.66
2022-11-07T04:22:07.303Z,100643.63
2022-11-07T04:22:39.326Z,100645.69
2022-11-07T04:23:10.863Z,100649.75
2022-11-07T04:23:42.430Z,100652.41
2022-11-07T04:24:13.995Z,100649.91
2022-11-07T04:24:46.277Z,100655.66
2022-11-07T04:25:18.021Z,100647.84
2022-11-07T04:26:08.968Z,100647.25
2022-11-07T04:26:59.202Z,100641.94
2022-11-07T04:27:43.146Z,100648.44
2022-11-07T04:28:18.779Z,100650.06
2022-11-07T04:28:51.877Z,100648.44
2022-11-07T04:29:23.451Z,100644.75
2022-11-07T04:29:55.536Z,100640.03
2022-11-07T04:30:28.252Z,100648.44
2022-11-07T04:30:59.848Z,100643.13
2022-11-07T04:31:31.427Z,100641.50
2022-11-07T04:32:03.240Z,100642.09
2022-11-07T04:32:37.017Z,100647.94
2022-11-07T04:33:08.548Z,100649.63
2022-11-07T04:33:40.084Z,100645.50
2022-11-07T04:34:11.590Z,100647.56
2022-11-07T04:34:43.227Z,100646.97
2022-11-07T04:35:15.854Z,100648.00
2022-11-07T04:35:47.387Z,100638.63
2022-11-07T04:36:19.390Z,100647.63
2022-11-07T04:36:50.879Z,100642.31
2022-11-07T04:37:22.389Z,100637.00
2022-11-07T04:37:53.973Z,100646.00
2022-11-07T04:38:25.539Z,100639.50
2022-11-07T04:38:57.161Z,100636.63
2022-11-07T04:39:28.973Z,100644.38
2022-11-07T04:40:00.529Z,100649.47
2022-11-07T04:40:32.217Z,100644.59
2022-11-07T04:41:04.645Z,100647.25
2022-11-07T04:41:36.363Z,100646.81
2022-11-07T04:42:14.884Z,100649.25
2022-11-07T04:42:47.460Z,100648.44
2022-11-07T04:43:19.174Z,100648.00
2022-11-07T04:43:51.419Z,100650.66
2022-11-07T04:44:23.034Z,100650.66
2022-11-07T04:44:54.638Z,100648.00
2022-11-07T04:45:26.383Z,100642.69
2022-11-07T04:45:57.919Z,100647.56
2022-11-07T04:46:29.423Z,100645.56
2022-11-07T04:47:01.006Z,100648.00
2022-11-07T04:47:36.444Z,100643.72
2022-11-07T04:48:12.857Z,100646.75
2022-11-07T04:48:44.863Z,100638.63
2022-11-07T04:49:16.475Z,100646.81
2022-11-07T04:49:48.024Z,100646.97
2022-11-07T04:50:20.411Z,100641.28
2022-11-07T04:50:52.059Z,100646.38
2022-11-07T04:51:24.474Z,100638.63
2022-11-07T04:52:00.546Z,100650.28
2022-11-07T04:52:32.231Z,100641.44
2022-11-07T04:53:03.818Z,100646.09
2022-11-07T04:53:35.439Z,100642.84
2022-11-07T04:54:10.179Z,100647.78
2022-11-07T04:54:48.042Z,100639.81
2022-11-07T04:55:26.790Z,100639.59
2022-11-07T04:55:58.364Z,100645.13
2022-11-07T04:56:34.348Z,100640.03
2022-11-07T04:57:06.225Z,100643.13
2022-11-07T04:57:37.909Z,100636.63
2022-11-07T04:58:10.391Z,100645.56
2022-11-07T04:58:42.020Z,100641.94
2022-11-07T04:59:13.642Z,100647.69
2022-11-07T04:59:45.506Z,100638.69
2022-11-07T05:00:20.440Z,100646.00
2022-11-07T05:00:52.758Z,100640.91
2022-11-07T05:01:25.257Z,100642.31
2022-11-07T05:01:56.954Z,100646.44
2022-11-07T05:02:28.684Z,100647.69
2022-11-07T05:03:00.383Z,100642.38
2022-11-07T05:03:32.923Z,100643.41
2022-11-07T05:04:06.723Z,100634.53
2022-11-07T05:04:39.314Z,100641.50
2022-11-07T05:05:11.182Z,100647.84
2022-11-07T05:05:42.769Z,100648.44
2022-11-07T05:06:14.948Z,100637.81
2022-11-07T05:06:46.548Z,100648.44
2022-11-07T05:07:19.322Z,100637.81
2022-11-07T05:07:51.894Z,100642.53
2022-11-07T05:08:23.423Z,100639.66
2022-11-07T05:08:54.983Z,100634.53
2022-11-07T05:09:27.405Z,100644.75
2022-11-07T05:09:58.988Z,100648.66
2022-11-07T05:10:30.483Z,100642.31
2022-11-07T05:11:02.016Z,100648.00
2022-11-07T05:11:33.559Z,100644.38
2022-11-07T05:12:05.808Z,100656.22
2022-11-07T05:12:37.348Z,100647.63
2022-11-07T05:13:08.947Z,100647.63
2022-11-07T05:13:40.652Z,100646.81
2022-11-07T05:14:12.327Z,100654.00
2022-11-07T05:14:43.892Z,100648.88
2022-11-07T05:15:21.653Z,100650.50
2022-11-07T05:15:53.267Z,100643.94
2022-11-07T05:16:24.780Z,100645.19
2022-11-07T05:16:56.577Z,100644.59
2022-11-07T05:17:28.400Z,100645.63
2022-11-07T05:17:59.952Z,100650.50
2022-11-07T05:18:31.591Z,100642.38
2022-11-07T05:19:03.732Z,100640.97
2022-11-07T05:19:48.733Z,100643.63
2022-11-07T05:20:38.300Z,100646.28
2022-11-07T05:21:10.119Z,100652.34
2022-11-07T05:21:41.694Z,100648.28
2022-11-07T05:22:31.677Z,100648.72
2022-11-07T05:23:13.900Z,100645.19
2022-11-07T05:23:46.277Z,100658.72
2022-11-07T05:24:18.293Z,100646.66
2022-11-07T05:24:49.855Z,100653.81
2022-11-07T05:25:21.350Z,100648.66
2022-11-07T05:25:54.103Z,100650.94
2022-11-07T05:26:25.609Z,100655.47
2022-11-07T05:26:57.184Z,100651.97
2022-11-07T05:27:28.736Z,100642.69
2022-11-07T05:28:00.290Z,100642.31
2022-11-07T05:28:38.660Z,100663.22
2022-11-07T05:29:11.779Z,100645.19
2022-11-07T05:29:43.398Z,100648.88
2022-11-07T05:30:15.010Z,100646.81
2022-11-07T05:30:46.889Z,100645.56
2022-11-07T05:31:18.405Z,100639.59
2022-11-07T05:31:49.873Z,100650.44
2022-11-07T05:32:21.434Z,100646.38
2022-11-07T05:32:52.962Z,100645.56
2022-11-07T05:33:24.600Z,100651.69
2022-11-07T05:33:56.216Z,100654.97
2022-11-07T05:34:27.811Z,100652.50
2022-11-07T05:34:59.342Z,100643.72
2022-11-07T05:35:30.859Z,100650.00
2022-11-07T05:36:14.247Z,100643.59
2022-11-07T05:36:45.930Z,100653.66
2022-11-07T05:37:17.520Z,100652.47
2022-11-07T05:37:49.267Z,100650.81
2022-11-07T05:38:20.851Z,100647.19
2022-11-07T05:38:53.552Z,100648.44
2022-11-07T05:39:25.140Z,100650.66
2022-11-07T05:39:56.721Z,100657.03
2022-11-07T05:40:28.395Z,100656.59
2022-11-07T05:41:03.439Z,100663.97
2022-11-07T05:41:35.574Z,100655.34
2022-11-07T05:42:56.467Z,100652.91
2022-11-07T05:43:28.086Z,100658.22
2022-11-07T05:43:59.704Z,100657.19
2022-11-07T05:44:31.633Z,100657.78
2022-11-07T05:45:07.404Z,100656.91
2022-11-07T05:45:41.150Z,100665.91
2022-11-07T05:46:13.466Z,100661.22
2022-11-07T05:46:45.072Z,100663.66
2022-11-07T05:47:16.816Z,100662.22
2022-11-07T05:47:48.557Z,100663.88
2022-11-07T05:48:20.559Z,100661.00
2022-11-07T05:48:55.396Z,100667.56
2022-11-07T05:49:29.567Z,100665.28
2022-11-07T05:50:01.088Z,100660.19
2022-11-07T05:50:32.751Z,100664.28
2022-11-07T05:51:05.822Z,100664.69
2022-11-07T05:52:36.965Z,100661.41
2022-11-07T05:53:09.224Z,100665.50
2022-11-07T05:53:40.875Z,100662.63
2022-11-07T05:54:12.386Z,100662.22
2022-11-07T05:54:43.986Z,100671.25
2022-11-07T05:55:15.826Z,100665.09
2022-11-07T05:55:48.081Z,100669.00
2022-11-07T05:56:19.577Z,100662.19
2022-11-07T05:56:51.264Z,100672.25
2022-11-07T05:57:23.191Z,100667.16
2022-11-07T05:57:56.010Z,100672.03
2022-11-07T05:58:27.645Z,100670.41
2022-11-07T05:58:59.230Z,100670.41
2022-11-07T05:59:30.848Z,100667.97
2022-11-07T06:00:06.204Z,100673.69
2022-11-07T06:00:43.719Z,100674.69
2022-11-07T06:01:15.388Z,100672.03
2022-11-07T06:01:50.923Z,100663.84
2022-11-07T06:02:23.005Z,100663.41
2022-11-07T06:02:57.260Z,100678.56
2022-11-07T06:03:29.120Z,100660.75
2022-11-07T06:04:03.509Z,100673.25
2022-11-07T06:04:35.048Z,100662.16
2022-11-07T06:05:07.456Z,100662.59
2022-11-07T06:05:39.869Z,100652.75
2022-11-07T06:06:11.524Z,100660.53
2022-11-07T06:06:43.086Z,100662.16
2022-11-07T06:07:14.653Z,100661.94
2022-11-07T06:07:46.204Z,100665.84
2022-11-07T06:08:20.956Z,100658.47
2022-11-07T06:08:52.519Z,100665.03
2022-11-07T06:09:24.782Z,100656.84
2022-11-07T06:09:57.914Z,100663.78
2022-11-07T06:10:29.504Z,100668.75
2022-11-07T06:11:04.510Z,100659.28
2022-11-07T06:11:36.038Z,100664.22
2022-11-07T06:12:07.970Z,100667.25
2022-11-07T06:12:42.355Z,100661.13
2022-11-07T06:13:16.675Z,100660.69
2022-11-07T06:13:48.793Z,100665.41
2022-11-07T06:14:20.344Z,100672.38
2022-11-07T06:14:51.868Z,100665.63
2022-11-07T06:15:23.489Z,100660.91
2022-11-07T06:15:55.055Z,100667.19
2022-11-07T06:16:27.484Z,100663.13
2022-11-07T06:16:59.208Z,100665.34
2022-11-07T06:17:30.803Z,100668.59
2022-11-07T06:18:03.952Z,100671.50
2022-11-07T06:18:41.417Z,100669.41
2022-11-07T06:19:14.377Z,100663.28
2022-11-07T06:19:45.982Z,100660.00
2022-11-07T06:20:17.513Z,100674.34
2022-11-07T06:20:49.646Z,100665.72
2022-11-07T06:21:21.323Z,100674.34
2022-11-07T06:21:52.918Z,100673.91
2022-11-07T06:22:25.333Z,100680.84
2022-11-07T06:23:01.226Z,100674.13
2022-11-07T06:23:33.250Z,100679.84
2022-11-07T06:24:05.233Z,100675.78
2022-11-07T06:24:36.833Z,100674.34
2022-11-07T06:25:08.870Z,100671.69
2022-11-07T06:25:40.509Z,100670.63
2022-11-07T06:26:12.123Z,100673.09
2022-11-07T06:26:43.598Z,100673.44
2022-11-07T06:27:15.116Z,100676.34
2022-11-07T06:27:46.679Z,100670.19
2022-11-07T06:28:18.345Z,100675.97
2022-11-07T06:28:50.048Z,100671.06
2022-11-07T06:29:21.679Z,100679.22
2022-11-07T06:29:53.265Z,100666.94
2022-11-07T06:30:26.517Z,100666.94
2022-11-07T06:31:02.097Z,100662.66